Weather reports worldwide

Advertisment
Pajares/Valgrande, Spain (8031): temperature & dewpoint: 19.03.2019 07:00:00 - 25.03.2019 07:00:00 (CET)Pajares/Valgrande, Spain (8031): wind speed & gusts: 19.03.2019 07:00:00 - 25.03.2019 07:00:00 (CET)Pajares/Valgrande, Spain (8031): wind direction: 19.03.2019 07:00:00 - 25.03.2019 07:00:00 (CET)Pajares/Valgrande, Spain (8031): precipitation: 19.03.2019 07:00:00 - 25.03.2019 07:00:00 (CET)
Date & Time tt [°C] td [°C] ff [km/h] ff [kn] fx [km/h] fx [kn] dd rr [mm]
25.03.2019 07:00:00 - - - - - - - -
25.03.2019 06:00:00 1,5 0,0 1 1 6 4 SW 0,0
25.03.2019 05:00:00 1,4 -0,5 2 1 6 4 WNW 0,0
25.03.2019 04:00:00 2,3 -0,3 1 1 8 4 SW 0,0
25.03.2019 03:00:00 3,1 -0,5 4 2 9 5 W 0,0
25.03.2019 02:00:00 - - - - - - - -
25.03.2019 01:00:00 2,9 0,9 1 1 6 3 S -
25.03.2019 00:00:00 3,0 0,9 0 0 11 6 N 0,0
24.03.2019 23:00:00 3,6 1,5 4 2 11 6 WNW 0,0
24.03.2019 22:00:00 3,9 1,7 3 2 13 7 WNW 0,0
24.03.2019 21:00:00 3,8 1,5 8 4 - - NNW -
24.03.2019 20:00:00 4,7 2,5 5 3 20 11 NNW 0,0
24.03.2019 19:00:00 5,8 3,6 8 5 24 13 NW -
24.03.2019 18:00:00 8,3 4,5 6 3 21 12 NW 0,0
24.03.2019 17:00:00 9,4 3,2 11 6 23 12 NW 0,0
24.03.2019 16:00:00 11,0 2,1 10 5 20 11 NW 0,0
24.03.2019 15:00:00 11,1 2,5 8 5 20 11 NW 0,0
24.03.2019 14:00:00 11,1 2,1 10 5 - - NW -
24.03.2019 13:00:00 11,2 0,6 10 5 16 9 NW -
24.03.2019 12:00:00 11,0 -1,2 5 3 13 7 NW 0,0
24.03.2019 11:00:00 10,4 -2,2 6 3 11 6 NW 0,0
24.03.2019 10:00:00 11,1 -1,4 4 2 9 5 NW 0,0
24.03.2019 09:00:00 9,6 -1,2 6 3 21 11 S 0,0
24.03.2019 08:00:00 6,5 -2,7 14 8 18 10 S 0,0
24.03.2019 07:00:00 - - - - - - - -
24.03.2019 06:00:00 6,5 -3,0 12 7 25 14 S 0,0
24.03.2019 05:00:00 7,3 -2,0 17 9 29 16 S 0,0
24.03.2019 04:00:00 7,3 -2,0 18 10 25 14 S 0,0
24.03.2019 03:00:00 6,8 -2,0 12 7 20 11 S 0,0
24.03.2019 02:00:00 6,1 -2,2 9 5 14 8 S 0,0
24.03.2019 01:00:00 5,5 -2,5 10 5 13 7 S -
24.03.2019 00:00:00 5,2 -2,2 8 5 14 7 SSW 0,0
23.03.2019 23:00:00 5,1 -1,7 9 5 14 8 SSW 0,0
23.03.2019 22:00:00 5,6 -0,7 10 5 15 8 SSW 0,0
23.03.2019 21:00:00 5,2 -1,0 10 6 14 7 SSW 0,0
23.03.2019 20:00:00 5,4 -1,2 9 5 11 6 SSW 0,0
23.03.2019 19:00:00 8,2 -1,2 3 2 16 9 W -
23.03.2019 18:00:00 9,9 -1,2 7 4 18 10 NW 0,0
23.03.2019 17:00:00 11,2 -1,0 8 5 21 11 NW 0,0
23.03.2019 16:00:00 11,9 -1,7 9 5 23 12 NW 0,0
23.03.2019 15:00:00 13,7 -2,7 4 2 17 9 SW 0,0
23.03.2019 14:00:00 12,5 -3,9 10 5 23 12 ESE 0,0
23.03.2019 13:00:00 12,8 -2,7 6 3 18 10 SSE -
23.03.2019 12:00:00 11,5 -2,5 6 4 18 10 SE 0,0
23.03.2019 11:00:00 10,7 -1,7 7 4 15 8 ESE 0,0
23.03.2019 10:00:00 9,0 -1,4 8 4 29 16 S 0,0
23.03.2019 09:00:00 6,4 -3,0 20 11 33 18 SSE 0,0
23.03.2019 08:00:00 4,3 -4,5 18 10 35 19 S 0,0
23.03.2019 07:00:00 3,9 -4,8 18 10 29 16 SSE -
23.03.2019 06:00:00 4,3 -4,8 16 9 34 18 SSE 0,0
23.03.2019 05:00:00 4,5 -4,8 22 12 37 20 S 0,0
23.03.2019 04:00:00 4,4 -4,8 23 12 36 19 S 0,0
23.03.2019 03:00:00 5,1 -4,8 22 12 35 19 S 0,0
23.03.2019 02:00:00 5,6 -4,5 17 9 35 19 S 0,0
23.03.2019 01:00:00 5,5 -4,2 21 11 33 18 S -
23.03.2019 00:00:00 5,3 -4,2 14 7 22 12 SSE 0,0
22.03.2019 23:00:00 5,3 -3,0 14 8 23 12 SSE 0,0
22.03.2019 22:00:00 5,5 -1,7 14 8 21 11 S 0,0
22.03.2019 21:00:00 3,1 -1,2 9 5 12 6 SSW 0,0
22.03.2019 20:00:00 3,5 -1,7 9 5 12 6 SSW 0,0
22.03.2019 19:00:00 6,1 -1,7 3 2 15 8 W -
22.03.2019 18:00:00 8,0 -2,5 8 4 18 10 WNW 0,0
22.03.2019 17:00:00 9,7 -2,2 8 4 19 11 NW 0,0
22.03.2019 16:00:00 10,5 -3,0 5 3 21 11 NW 0,0
22.03.2019 15:00:00 10,9 -4,8 10 5 22 12 NW 0,0
22.03.2019 14:00:00 10,9 -5,1 6 3 12 7 WNW 0,0
22.03.2019 13:00:00 10,6 -4,8 1 1 9 5 SSE -
22.03.2019 12:00:00 9,6 -4,5 1 1 14 7 SSE 0,0
22.03.2019 11:00:00 8,5 -3,3 7 4 19 10 S 0,0
22.03.2019 10:00:00 6,3 -3,9 14 8 25 13 S 0,0
22.03.2019 09:00:00 4,8 -4,2 13 7 21 12 SSE 0,0
22.03.2019 08:00:00 2,0 -4,5 16 9 24 13 S 0,0
22.03.2019 07:00:00 1,7 -4,5 15 8 27 14 SSE -
22.03.2019 06:00:00 1,9 -4,8 17 9 30 16 SSE 0,0
22.03.2019 05:00:00 1,8 -5,1 18 10 27 15 S 0,0
22.03.2019 04:00:00 1,6 -4,2 19 10 32 17 S 0,0
22.03.2019 03:00:00 2,4 -3,6 23 12 33 18 SSE 0,0
22.03.2019 02:00:00 1,9 -3,6 18 10 29 16 S 0,0
22.03.2019 01:00:00 2,2 -3,6 20 11 29 16 S -
22.03.2019 00:00:00 2,4 -3,9 21 12 30 16 S 0,0
21.03.2019 23:00:00 3,1 -3,9 22 12 33 18 S 0,0
21.03.2019 22:00:00 3,8 -3,9 22 12 30 16 SSE 0,0
21.03.2019 21:00:00 4,5 -2,2 15 8 25 14 S 0,0
21.03.2019 20:00:00 2,4 -1,7 8 4 11 6 SSW 0,0
21.03.2019 19:00:00 3,5 -1,7 4 2 11 6 SSW -
21.03.2019 18:00:00 5,7 -1,4 5 3 15 8 NW 0,0
21.03.2019 17:00:00 6,8 -1,4 6 4 19 10 NW 0,0
21.03.2019 16:00:00 7,0 -1,2 7 4 19 10 NW 0,0
21.03.2019 15:00:00 7,1 0,0 6 4 16 9 NNW 0,0
21.03.2019 14:00:00 6,3 -1,2 6 3 15 8 NW 0,0
21.03.2019 13:00:00 5,8 -1,7 6 4 13 7 NW -
21.03.2019 12:00:00 5,3 -4,2 6 4 18 10 NW 0,0
21.03.2019 11:00:00 6,7 -6,7 10 5 21 11 S 0,0
21.03.2019 10:00:00 5,1 -6,0 14 7 23 13 S 0,0
21.03.2019 09:00:00 3,0 -3,9 0 0 12 7 SSE 0,0
21.03.2019 08:00:00 -0,9 -6,0 8 5 12 6 SSW 0,0
21.03.2019 07:00:00 -1,2 -4,8 8 5 11 6 SSW -
21.03.2019 06:00:00 -1,1 -3,6 2 1 6 3 S 0,0
21.03.2019 05:00:00 -0,3 -2,7 2 1 9 5 SSW 0,0
21.03.2019 04:00:00 0,6 -2,2 3 2 8 5 W 0,0
21.03.2019 03:00:00 0,6 -2,7 5 3 11 6 W 0,0
21.03.2019 02:00:00 -0,2 -2,0 6 4 10 5 SSW 0,0
21.03.2019 01:00:00 -0,1 -2,2 0 0 8 4 N -
21.03.2019 00:00:00 0,3 -1,0 3 2 8 5 SW 0,0
20.03.2019 23:00:00 0,6 -0,7 3 1 6 4 SSW 0,0
20.03.2019 22:00:00 1,4 0,2 3 2 8 5 SSW 0,0
20.03.2019 21:00:00 2,1 0,9 3 2 9 5 NW 0,0
20.03.2019 20:00:00 2,6 1,1 3 2 9 5 NW 0,0
20.03.2019 19:00:00 3,0 1,3 3 2 9 5 NW -
20.03.2019 18:00:00 3,5 1,7 5 3 14 8 NW 0,0
20.03.2019 17:00:00 4,1 2,1 7 4 18 10 NW 0,0
20.03.2019 16:00:00 4,7 3,0 7 4 14 8 NW 0,0
20.03.2019 15:00:00 4,2 2,7 6 4 14 8 NW 0,0
20.03.2019 14:00:00 4,1 2,9 5 3 15 8 NW 0,0
20.03.2019 13:00:00 3,3 2,1 5 3 12 7 W -
20.03.2019 12:00:00 1,7 0,6 5 3 13 7 NW 1,4
20.03.2019 11:00:00 0,9 -0,3 6 3 14 8 NNW 0,8
20.03.2019 10:00:00 0,4 -0,7 6 3 20 11 NW 0,5
20.03.2019 09:00:00 0,1 -1,0 8 4 19 10 NW 0,2
20.03.2019 08:00:00 0,1 -1,0 10 5 16 9 NW 0,0
20.03.2019 07:00:00 0,1 -1,0 12 6 17 9 NNW -
20.03.2019 06:00:00 0,1 -1,0 8 4 20 11 NNE 0,1
20.03.2019 05:00:00 0,2 -1,0 8 5 21 11 NNE 0,2
20.03.2019 04:00:00 0,2 -1,0 8 4 17 9 NW 0,2
20.03.2019 03:00:00 0,3 -1,0 7 4 15 8 NW 0,1
20.03.2019 02:00:00 0,3 -1,0 9 5 16 9 NW 0,2
20.03.2019 01:00:00 0,2 -1,0 5 3 14 8 NNW -
20.03.2019 00:00:00 0,3 -1,0 10 5 22 12 NW 0,2
19.03.2019 23:00:00 0,3 -1,0 9 5 22 12 NW 0,2
19.03.2019 22:00:00 0,4 -0,7 12 7 25 13 NW 0,3
19.03.2019 21:00:00 0,6 -0,5 11 6 20 11 NW 0,4
19.03.2019 20:00:00 0,6 -0,5 10 5 19 11 NW 0,5
19.03.2019 19:00:00 0,9 -0,3 9 5 19 10 NW -
19.03.2019 18:00:00 0,9 -0,3 9 5 16 9 NW 1,1
19.03.2019 17:00:00 0,8 -0,3 9 5 22 12 NW 1,5
19.03.2019 16:00:00 0,9 -0,3 9 5 27 15 NW 1,1
19.03.2019 15:00:00 0,6 -0,5 14 8 28 15 NW 1,4
19.03.2019 14:00:00 0,5 -0,7 8 4 19 10 NW 0,9
19.03.2019 13:00:00 0,3 -1,0 7 4 18 10 WNW -
19.03.2019 12:00:00 0,1 -1,0 8 4 16 9 WNW 1,6
19.03.2019 11:00:00 0,0 -1,2 10 5 21 11 WNW 0,0
19.03.2019 10:00:00 -0,1 -1,2 9 5 15 8 WNW 0,0
19.03.2019 09:00:00 -0,4 -1,4 10 6 21 11 NW 0,0
19.03.2019 08:00:00 -0,7 -2,0 11 6 27 14 WNW 0,0
19.03.2019 07:00:00 -0,8 -2,0 13 7 27 15 WNW -

tt = temperature
td = dewpoint
ff = wind speed
fx = gusts
dd = wind direction
rr = precipitation

Next stations